createdAt,value
2022-07-26T00:01:01.261Z,25.22
2022-07-26T00:02:03.066Z,25.14
2022-07-26T00:03:04.808Z,24.77
2022-07-26T00:04:06.591Z,24.42
2022-07-26T00:05:09.208Z,24.15
2022-07-26T00:06:10.794Z,23.99
2022-07-26T00:07:12.391Z,23.78
2022-07-26T00:08:14.068Z,23.59
2022-07-26T00:09:15.942Z,23.47
2022-07-26T00:10:17.526Z,23.33
2022-07-26T00:11:20.110Z,23.24
2022-07-26T00:12:21.678Z,23.19
2022-07-26T00:13:23.404Z,23.18
2022-07-26T00:14:25.211Z,23.13
2022-07-26T00:15:27.409Z,23.10
2022-07-26T00:16:29.847Z,23.11
2022-07-26T00:17:31.570Z,23.14
2022-07-26T00:18:33.601Z,23.18
2022-07-26T00:19:35.179Z,23.25
2022-07-26T00:20:36.892Z,23.35
2022-07-26T00:21:40.810Z,23.46
2022-07-26T00:22:42.557Z,23.56
2022-07-26T00:23:44.239Z,23.67
2022-07-26T00:24:45.907Z,23.75
2022-07-26T00:25:47.536Z,23.84
2022-07-26T00:26:49.107Z,23.92
2022-07-26T00:27:50.761Z,23.99
2022-07-26T00:28:52.349Z,24.03
2022-07-26T00:29:53.920Z,24.08
2022-07-26T00:30:55.508Z,24.09
2022-07-26T00:31:57.179Z,24.06
2022-07-26T00:32:58.918Z,23.98
2022-07-26T00:34:00.572Z,23.98
2022-07-26T00:35:02.237Z,24.01
2022-07-26T00:36:04.154Z,24.07
2022-07-26T00:37:05.761Z,24.14
2022-07-26T00:38:07.648Z,24.23
2022-07-26T00:39:10.906Z,24.27
2022-07-26T00:40:13.303Z,24.33
2022-07-26T00:41:14.952Z,24.39
2022-07-26T00:42:17.071Z,24.43
2022-07-26T00:43:18.736Z,24.48
2022-07-26T00:44:20.482Z,24.51
2022-07-26T00:45:22.475Z,24.55
2022-07-26T00:46:24.398Z,24.57
2022-07-26T00:47:26.172Z,24.59
2022-07-26T00:48:27.890Z,24.64
2022-07-26T00:49:29.501Z,24.66
2022-07-26T00:50:31.204Z,24.68
2022-07-26T00:51:33.100Z,24.68
2022-07-26T00:52:34.826Z,24.67
2022-07-26T00:53:36.462Z,24.50
2022-07-26T00:54:40.033Z,24.27
2022-07-26T00:55:41.892Z,24.07
2022-07-26T00:56:44.278Z,23.91
2022-07-26T00:57:46.577Z,23.77
2022-07-26T00:58:48.407Z,23.60
2022-07-26T00:59:50.830Z,23.55
2022-07-26T01:00:52.508Z,23.67
2022-07-26T01:01:54.393Z,23.75
2022-07-26T01:02:57.092Z,23.83
2022-07-26T01:03:59.108Z,23.93
2022-07-26T01:05:01.166Z,24.01
2022-07-26T01:06:02.917Z,24.04
2022-07-26T01:07:14.631Z,24.12
2022-07-26T01:08:17.189Z,24.17
2022-07-26T01:09:19.546Z,24.18
2022-07-26T01:10:21.725Z,24.19
2022-07-26T01:11:23.360Z,24.20
2022-07-26T01:12:24.979Z,24.23
2022-07-26T01:13:29.720Z,24.25
2022-07-26T01:14:34.791Z,24.26
2022-07-26T01:15:36.461Z,24.17
2022-07-26T01:16:38.371Z,24.15
2022-07-26T01:17:41.195Z,24.18
2022-07-26T01:18:43.026Z,24.21
2022-07-26T01:19:44.686Z,24.23
2022-07-26T01:20:47.909Z,24.26
2022-07-26T01:21:52.608Z,24.27
2022-07-26T01:22:54.160Z,24.31
2022-07-26T01:23:55.843Z,24.35
2022-07-26T01:24:57.438Z,24.38
2022-07-26T01:25:59.034Z,24.39
2022-07-26T01:27:01.075Z,24.38
2022-07-26T01:28:05.235Z,24.36
2022-07-26T01:29:07.013Z,24.21
2022-07-26T01:30:11.364Z,24.16
2022-07-26T01:31:13.049Z,24.12
2022-07-26T01:32:14.878Z,24.07
2022-07-26T01:33:16.497Z,24.03
2022-07-26T01:34:18.368Z,23.98
2022-07-26T01:35:21.395Z,23.78
2022-07-26T01:36:23.084Z,23.46
2022-07-26T01:37:24.685Z,23.41
2022-07-26T01:38:27.440Z,23.34
2022-07-26T01:39:29.170Z,23.24
2022-07-26T01:40:30.779Z,23.19
2022-07-26T01:41:38.372Z,23.12
2022-07-26T01:42:41.221Z,23.02
2022-07-26T01:43:43.300Z,22.80
2022-07-26T01:44:44.899Z,22.75
2022-07-26T01:45:46.655Z,22.69
2022-07-26T01:46:48.566Z,22.71
2022-07-26T01:47:50.405Z,22.69
2022-07-26T01:48:52.743Z,22.62
2022-07-26T01:49:54.372Z,22.60
2022-07-26T01:50:55.953Z,22.56
2022-07-26T01:51:57.568Z,22.54
2022-07-26T01:52:59.219Z,22.54
2022-07-26T01:54:02.010Z,22.52
2022-07-26T01:55:03.928Z,22.51
2022-07-26T01:56:06.016Z,22.59
2022-07-26T01:57:07.642Z,22.63
2022-07-26T01:58:09.357Z,22.64
2022-07-26T01:59:10.958Z,22.66
2022-07-26T02:00:13.030Z,22.72
2022-07-26T02:01:14.698Z,22.76
2022-07-26T02:02:16.438Z,22.81
2022-07-26T02:03:18.217Z,22.87
2022-07-26T02:04:38.453Z,22.96
2022-07-26T02:05:40.093Z,23.05
2022-07-26T02:06:42.013Z,23.10
2022-07-26T02:07:45.154Z,23.15
2022-07-26T02:08:46.791Z,23.19
2022-07-26T02:09:48.446Z,23.20
2022-07-26T02:11:00.572Z,23.22
2022-07-26T02:12:05.441Z,23.24
2022-07-26T02:13:07.199Z,23.27
2022-07-26T02:14:10.001Z,23.29
2022-07-26T02:15:15.396Z,23.34
2022-07-26T02:16:16.980Z,23.37
2022-07-26T02:17:18.720Z,23.39
2022-07-26T02:18:20.319Z,23.42
2022-07-26T02:19:21.960Z,23.41
2022-07-26T02:20:23.561Z,23.42
2022-07-26T02:21:25.130Z,23.40
2022-07-26T02:22:26.980Z,23.42
2022-07-26T02:23:28.938Z,23.43
2022-07-26T02:24:30.730Z,23.45
2022-07-26T02:25:32.682Z,23.46
2022-07-26T02:26:34.337Z,23.48
2022-07-26T02:27:35.949Z,23.50
2022-07-26T02:28:37.557Z,23.52
2022-07-26T02:29:39.220Z,23.54
2022-07-26T02:30:41.101Z,23.56
2022-07-26T02:31:42.886Z,23.56
2022-07-26T02:32:50.550Z,23.58
2022-07-26T02:33:52.111Z,23.58
2022-07-26T02:34:53.709Z,23.58
2022-07-26T02:35:55.585Z,23.55
2022-07-26T02:36:57.242Z,23.42
2022-07-26T02:38:06.629Z,23.14
2022-07-26T02:39:08.222Z,22.97
2022-07-26T02:40:13.240Z,22.92
2022-07-26T02:41:18.785Z,22.77
2022-07-26T02:42:20.433Z,22.44
2022-07-26T02:43:22.186Z,22.26
2022-07-26T02:44:25.155Z,22.10
2022-07-26T02:45:27.444Z,22.08
2022-07-26T02:46:29.217Z,22.07
2022-07-26T02:47:32.977Z,22.06
2022-07-26T02:48:34.609Z,22.08
2022-07-26T02:49:36.496Z,22.16
2022-07-26T02:50:38.175Z,22.19
2022-07-26T02:51:39.803Z,22.24
2022-07-26T02:52:41.360Z,22.24
2022-07-26T02:53:42.988Z,22.29
2022-07-26T02:54:44.609Z,22.35
2022-07-26T02:55:46.223Z,22.41
2022-07-26T02:56:47.787Z,22.47
2022-07-26T02:57:50.083Z,22.53
2022-07-26T02:58:51.702Z,22.59
2022-07-26T02:59:53.351Z,22.65
2022-07-26T03:00:55.218Z,22.64
2022-07-26T03:01:56.939Z,22.67
2022-07-26T03:02:58.996Z,22.67
2022-07-26T03:04:01.195Z,22.73
2022-07-26T03:05:04.029Z,22.80
2022-07-26T03:06:05.757Z,22.85
2022-07-26T03:07:07.321Z,22.89
2022-07-26T03:08:08.921Z,22.92
2022-07-26T03:09:10.658Z,23.00
2022-07-26T03:10:12.589Z,23.07
2022-07-26T03:11:14.581Z,23.07
2022-07-26T03:12:16.207Z,23.07
2022-07-26T03:13:17.966Z,23.05
2022-07-26T03:14:19.542Z,22.98
2022-07-26T03:15:21.269Z,22.94
2022-07-26T03:16:27.351Z,22.94
2022-07-26T03:17:30.921Z,22.89
2022-07-26T03:18:33.946Z,22.89
2022-07-26T03:19:35.572Z,22.93
2022-07-26T03:20:37.203Z,23.00
2022-07-26T03:21:38.904Z,23.04
2022-07-26T03:22:40.590Z,23.04
2022-07-26T03:23:42.267Z,23.05
2022-07-26T03:24:43.868Z,23.04
2022-07-26T03:25:45.478Z,23.03
2022-07-26T03:26:47.094Z,22.97
2022-07-26T03:27:48.749Z,22.94
2022-07-26T03:28:50.387Z,22.84
2022-07-26T03:29:51.991Z,22.74
2022-07-26T03:30:53.715Z,22.56
2022-07-26T03:31:55.533Z,22.40
2022-07-26T03:32:57.140Z,22.27
2022-07-26T03:34:03.929Z,22.14
2022-07-26T03:35:07.040Z,21.98
2022-07-26T03:36:11.448Z,21.94
2022-07-26T03:37:13.381Z,21.77
2022-07-26T03:38:15.065Z,21.73
2022-07-26T03:39:16.681Z,21.78
2022-07-26T03:40:33.521Z,21.82
2022-07-26T03:41:35.102Z,21.87
2022-07-26T03:42:36.920Z,21.92
2022-07-26T03:43:38.529Z,22.00
2022-07-26T03:44:40.139Z,22.04
2022-07-26T03:45:42.605Z,22.11
2022-07-26T03:46:44.245Z,22.18
2022-07-26T03:47:46.460Z,22.25
2022-07-26T03:48:48.152Z,22.33
2022-07-26T03:49:49.771Z,22.37
2022-07-26T03:50:51.341Z,22.27
2022-07-26T03:51:53.179Z,22.20
2022-07-26T03:52:54.874Z,22.13
2022-07-26T03:53:56.457Z,22.05
2022-07-26T03:54:58.698Z,21.96
2022-07-26T03:56:19.568Z,21.92
2022-07-26T03:57:21.152Z,21.81
2022-07-26T03:58:22.899Z,21.67
2022-07-26T03:59:25.585Z,21.79
2022-07-26T04:00:27.466Z,21.78
2022-07-26T04:01:29.809Z,21.73
2022-07-26T04:02:31.497Z,21.66
2022-07-26T04:03:33.089Z,21.55
2022-07-26T04:04:35.049Z,21.50
2022-07-26T04:05:36.985Z,21.46
2022-07-26T04:06:39.739Z,21.47
2022-07-26T04:07:52.509Z,21.49
2022-07-26T04:08:55.545Z,21.48
2022-07-26T04:09:57.135Z,21.47
2022-07-26T04:10:59.298Z,21.42
2022-07-26T04:12:00.904Z,21.51
2022-07-26T04:13:02.555Z,21.63
2022-07-26T04:14:04.720Z,21.76
2022-07-26T04:15:07.322Z,21.83
2022-07-26T04:16:08.949Z,21.75
2022-07-26T04:17:10.665Z,21.69
2022-07-26T04:18:14.303Z,21.69
2022-07-26T04:19:16.094Z,21.86
2022-07-26T04:20:18.127Z,22.03
2022-07-26T04:21:20.275Z,22.23
2022-07-26T04:22:21.884Z,22.31
2022-07-26T04:23:23.582Z,22.40
2022-07-26T04:24:25.664Z,22.54
2022-07-26T04:25:27.384Z,22.75
2022-07-26T04:26:42.253Z,22.91
2022-07-26T04:27:43.882Z,23.07
2022-07-26T04:28:45.460Z,23.17
2022-07-26T04:29:47.077Z,23.31
2022-07-26T04:30:48.779Z,23.46
2022-07-26T04:31:50.423Z,23.65
2022-07-26T04:32:52.224Z,23.75
2022-07-26T04:33:53.871Z,23.83
2022-07-26T04:34:56.351Z,23.96
2022-07-26T04:35:57.967Z,24.09
2022-07-26T04:36:59.581Z,24.20
2022-07-26T04:38:02.605Z,24.37
2022-07-26T04:39:04.232Z,24.48
2022-07-26T04:40:06.668Z,24.53
2022-07-26T04:41:11.160Z,24.67
2022-07-26T04:42:13.099Z,24.79
2022-07-26T04:43:19.211Z,24.83
2022-07-26T04:44:20.914Z,24.85
2022-07-26T04:45:22.536Z,24.98
2022-07-26T04:46:25.347Z,25.14
2022-07-26T04:47:30.494Z,25.20
2022-07-26T04:48:32.242Z,25.28
2022-07-26T04:49:34.031Z,25.39
2022-07-26T04:50:35.732Z,25.51
2022-07-26T04:51:37.988Z,25.54
2022-07-26T04:52:40.102Z,25.48
2022-07-26T04:53:41.722Z,25.47
2022-07-26T04:54:43.896Z,25.56
2022-07-26T04:55:45.617Z,25.59
2022-07-26T04:56:47.585Z,25.49
2022-07-26T04:57:50.212Z,25.39
2022-07-26T04:58:51.798Z,25.40
2022-07-26T05:00:09.934Z,25.58
2022-07-26T05:01:15.183Z,25.76
2022-07-26T05:02:18.396Z,25.88
2022-07-26T05:03:22.090Z,25.98
2022-07-26T05:04:23.734Z,25.99
2022-07-26T05:05:26.928Z,25.93
2022-07-26T05:06:28.592Z,26.06
2022-07-26T05:07:46.361Z,26.25
2022-07-26T05:08:47.981Z,26.42
2022-07-26T05:09:49.664Z,26.44
2022-07-26T05:10:55.446Z,26.31
2022-07-26T05:11:57.788Z,26.39
2022-07-26T05:12:59.721Z,26.33
2022-07-26T05:14:01.344Z,26.27
2022-07-26T05:15:04.374Z,25.99
2022-07-26T05:16:11.698Z,25.77
2022-07-26T05:17:14.004Z,25.83
2022-07-26T05:18:19.541Z,26.03
2022-07-26T05:19:24.959Z,26.23
2022-07-26T05:20:26.647Z,26.33
2022-07-26T05:21:28.281Z,26.56
2022-07-26T05:22:29.959Z,26.67
2022-07-26T05:23:31.552Z,26.50
2022-07-26T05:24:33.145Z,26.49
2022-07-26T05:25:34.962Z,26.66
2022-07-26T05:26:36.829Z,26.79
2022-07-26T05:27:40.671Z,26.90
2022-07-26T05:28:42.498Z,27.01
2022-07-26T05:29:44.280Z,27.02
2022-07-26T05:30:47.082Z,27.06
2022-07-26T05:31:48.745Z,27.24
2022-07-26T05:32:50.518Z,27.45
2022-07-26T05:33:52.163Z,27.53
2022-07-26T05:34:53.784Z,27.58
2022-07-26T05:35:55.356Z,27.78
2022-07-26T05:36:57.267Z,28.03
2022-07-26T05:37:58.986Z,28.21
2022-07-26T05:39:00.639Z,28.40
2022-07-26T05:40:04.399Z,28.50
2022-07-26T05:41:06.864Z,28.61
2022-07-26T05:42:08.700Z,28.78
2022-07-26T05:43:10.266Z,28.88
2022-07-26T05:44:11.963Z,29.04
2022-07-26T05:45:13.706Z,29.16
2022-07-26T05:46:18.365Z,29.19
2022-07-26T05:47:19.961Z,29.05
2022-07-26T05:48:21.554Z,29.09
2022-07-26T05:49:23.168Z,29.28
2022-07-26T05:50:24.882Z,29.44
2022-07-26T05:51:26.463Z,29.54
2022-07-26T05:52:28.211Z,29.44
2022-07-26T05:53:30.013Z,29.49
2022-07-26T05:54:31.580Z,29.60
2022-07-26T05:55:33.175Z,29.73
2022-07-26T05:56:34.785Z,29.81
2022-07-26T05:57:36.356Z,29.89
2022-07-26T05:58:37.988Z,29.54
2022-07-26T05:59:39.584Z,29.47
2022-07-26T06:00:48.250Z,29.57
2022-07-26T06:01:50.698Z,29.57
2022-07-26T06:02:52.514Z,29.65
2022-07-26T06:03:54.207Z,29.83
2022-07-26T06:04:55.928Z,29.99
2022-07-26T06:05:58.684Z,30.11
2022-07-26T06:07:00.258Z,30.08
2022-07-26T06:08:01.867Z,30.05
2022-07-26T06:09:04.173Z,30.10
2022-07-26T06:10:06.377Z,30.07
2022-07-26T06:11:08.256Z,30.33
2022-07-26T06:12:10.087Z,30.47
2022-07-26T06:13:11.882Z,30.58
2022-07-26T06:14:14.016Z,30.63
2022-07-26T06:15:16.145Z,30.76
2022-07-26T06:16:17.961Z,30.82
2022-07-26T06:17:19.761Z,30.85
2022-07-26T06:18:21.617Z,30.77
2022-07-26T06:19:23.508Z,30.91
2022-07-26T06:20:25.091Z,30.95
2022-07-26T06:21:26.784Z,30.87
2022-07-26T06:22:28.375Z,30.47
2022-07-26T06:23:33.636Z,30.27
2022-07-26T06:24:36.750Z,30.40
2022-07-26T06:25:39.004Z,30.47
2022-07-26T06:26:40.970Z,30.39
2022-07-26T06:27:42.692Z,30.67
2022-07-26T06:28:44.604Z,30.92
2022-07-26T06:29:48.626Z,31.17
2022-07-26T06:30:50.398Z,31.03
2022-07-26T06:31:52.406Z,30.85
2022-07-26T06:32:54.041Z,31.02
2022-07-26T06:33:55.771Z,31.29
2022-07-26T06:34:57.437Z,31.40
2022-07-26T06:35:59.162Z,31.31
2022-07-26T06:37:00.761Z,31.49
2022-07-26T06:38:03.119Z,31.48
2022-07-26T06:39:04.732Z,31.54
2022-07-26T06:40:08.087Z,31.71
2022-07-26T06:41:09.704Z,31.80
2022-07-26T06:42:11.737Z,31.78
2022-07-26T06:43:13.422Z,31.41
2022-07-26T06:44:15.236Z,31.21
2022-07-26T06:45:16.847Z,30.80
2022-07-26T06:46:19.497Z,30.51
2022-07-26T06:47:21.325Z,30.38
2022-07-26T06:48:22.971Z,30.34
2022-07-26T06:49:25.132Z,30.40
2022-07-26T06:50:27.035Z,30.50
2022-07-26T06:51:29.148Z,30.81
2022-07-26T06:52:32.798Z,31.22
2022-07-26T06:53:34.747Z,31.49
2022-07-26T06:54:36.365Z,31.73
2022-07-26T06:55:37.954Z,31.80
2022-07-26T06:56:39.934Z,31.60
2022-07-26T06:57:44.990Z,31.40
2022-07-26T06:58:51.939Z,31.03
2022-07-26T06:59:53.843Z,31.09
2022-07-26T07:00:55.638Z,31.46
2022-07-26T07:02:00.204Z,31.81
2022-07-26T07:03:02.155Z,31.80
2022-07-26T07:04:03.820Z,31.30
2022-07-26T07:05:06.139Z,31.05
2022-07-26T07:06:08.065Z,30.99
2022-07-26T07:07:09.758Z,31.13
2022-07-26T07:08:14.589Z,31.43
2022-07-26T07:09:16.664Z,31.71
2022-07-26T07:10:19.274Z,31.68
2022-07-26T07:11:25.571Z,31.68
2022-07-26T07:12:27.614Z,31.54
2022-07-26T07:13:29.188Z,31.61
2022-07-26T07:14:31.091Z,31.51
2022-07-26T07:15:33.002Z,31.75
2022-07-26T07:16:34.620Z,32.03
2022-07-26T07:17:36.419Z,32.16
2022-07-26T07:18:38.244Z,31.79
2022-07-26T07:19:39.943Z,31.55
2022-07-26T07:20:41.544Z,31.23
2022-07-26T07:21:43.236Z,31.20
2022-07-26T07:22:44.889Z,31.30
2022-07-26T07:23:46.543Z,31.64
2022-07-26T07:24:48.610Z,31.60
2022-07-26T07:25:50.663Z,31.84
2022-07-26T07:26:52.937Z,31.92
2022-07-26T07:27:54.521Z,32.04
2022-07-26T07:28:56.879Z,32.02
2022-07-26T07:29:58.450Z,31.98
2022-07-26T07:31:00.195Z,31.91
2022-07-26T07:32:03.619Z,31.91
2022-07-26T07:33:05.414Z,31.95
2022-07-26T07:34:08.087Z,32.07
2022-07-26T07:35:12.977Z,31.96
2022-07-26T07:36:14.828Z,31.84
2022-07-26T07:37:17.897Z,31.85
2022-07-26T07:38:22.400Z,31.86
2022-07-26T07:39:27.222Z,31.95
2022-07-26T07:40:36.752Z,31.83
2022-07-26T07:41:39.235Z,31.74
2022-07-26T07:42:40.845Z,31.81
2022-07-26T07:43:42.430Z,32.13
2022-07-26T07:44:44.046Z,32.53
2022-07-26T07:45:48.391Z,32.81
2022-07-26T07:46:50.632Z,32.87
2022-07-26T07:47:52.224Z,32.94
2022-07-26T07:48:54.075Z,33.05
2022-07-26T07:49:55.726Z,33.11
2022-07-26T07:50:57.302Z,33.33
2022-07-26T07:51:58.931Z,33.61
2022-07-26T07:53:02.173Z,33.81
2022-07-26T07:54:05.898Z,33.63
2022-07-26T07:55:40.986Z,33.16
2022-07-26T07:56:30.295Z,32.99
2022-07-26T07:57:31.935Z,32.89
2022-07-26T07:58:33.766Z,32.50
2022-07-26T07:59:37.098Z,32.34
2022-07-26T08:00:41.444Z,32.19
2022-07-26T08:01:43.160Z,32.12
2022-07-26T08:02:47.179Z,32.23
2022-07-26T08:03:50.422Z,32.37
2022-07-26T08:04:54.136Z,32.68
2022-07-26T08:05:55.743Z,32.85
2022-07-26T08:06:57.777Z,32.83
2022-07-26T08:07:59.631Z,32.82
2022-07-26T08:09:01.341Z,32.85
2022-07-26T08:10:06.125Z,32.93
2022-07-26T08:11:08.059Z,32.52
2022-07-26T08:12:11.151Z,32.62
2022-07-26T08:13:13.438Z,32.74
2022-07-26T08:14:15.069Z,33.00
2022-07-26T08:15:16.650Z,33.31
2022-07-26T08:16:21.155Z,33.57
2022-07-26T08:17:22.821Z,33.82
2022-07-26T08:18:27.201Z,33.60
2022-07-26T08:19:42.011Z,33.47
2022-07-26T08:20:44.476Z,33.41
2022-07-26T08:21:46.899Z,33.56
2022-07-26T08:22:48.630Z,33.18
2022-07-26T08:25:09.747Z,33.41
2022-07-26T08:26:11.502Z,33.75
2022-07-26T08:27:14.596Z,33.82
2022-07-26T08:28:37.484Z,33.73
2022-07-26T08:29:38.341Z,33.96
2022-07-26T08:30:40.044Z,34.10
2022-07-26T08:31:41.712Z,34.24
2022-07-26T08:32:43.416Z,34.39
2022-07-26T08:33:46.544Z,34.50
2022-07-26T08:34:48.558Z,34.45
2022-07-26T08:35:50.295Z,34.29
2022-07-26T08:37:15.377Z,33.97
2022-07-26T08:38:13.515Z,33.90
2022-07-26T08:39:16.168Z,33.87
2022-07-26T08:40:18.026Z,33.90
2022-07-26T08:41:19.813Z,34.12
2022-07-26T08:42:23.150Z,34.29
2022-07-26T08:43:25.166Z,33.98
2022-07-26T08:44:26.855Z,33.80
2022-07-26T08:45:31.157Z,33.97
2022-07-26T08:46:36.595Z,34.24
2022-07-26T08:48:00.834Z,34.49
2022-07-26T08:49:02.368Z,34.70
2022-07-26T08:50:04.244Z,34.82
2022-07-26T08:51:11.132Z,34.36
2022-07-26T08:52:14.541Z,34.37
2022-07-26T08:53:16.863Z,34.41
2022-07-26T08:54:18.500Z,34.30
2022-07-26T08:55:21.015Z,34.26
2022-07-26T08:56:22.652Z,34.35
2022-07-26T08:57:24.263Z,34.18
2022-07-26T08:58:25.968Z,34.06
2022-07-26T08:59:27.719Z,34.11
2022-07-26T09:00:31.237Z,34.14
2022-07-26T09:01:33.128Z,34.29
2022-07-26T09:02:41.754Z,34.54
2022-07-26T09:03:45.170Z,34.71
2022-07-26T09:04:47.388Z,34.73
2022-07-26T09:05:49.067Z,34.47
2022-07-26T09:06:59.835Z,34.09
2022-07-26T09:08:22.300Z,34.15
2022-07-26T09:09:23.993Z,34.29
2022-07-26T09:10:26.750Z,34.13
2022-07-26T09:11:30.025Z,33.98
2022-07-26T09:12:33.107Z,33.97
2022-07-26T09:13:52.615Z,34.17
2022-07-26T09:14:54.880Z,34.33
2022-07-26T09:16:12.422Z,34.29
2022-07-26T09:17:16.826Z,34.40
2022-07-26T09:18:29.393Z,34.46
2022-07-26T09:19:31.030Z,34.48
2022-07-26T09:20:33.300Z,34.50
2022-07-26T09:21:36.554Z,34.69
2022-07-26T09:22:55.268Z,34.81
2022-07-26T09:23:58.538Z,34.88
2022-07-26T09:25:00.356Z,35.01
2022-07-26T09:26:05.069Z,35.18
2022-07-26T09:27:10.192Z,35.24
2022-07-26T09:28:44.964Z,35.28
2022-07-26T09:30:04.341Z,35.33
2022-07-26T09:31:06.507Z,35.32
2022-07-26T09:32:18.461Z,35.08
2022-07-26T09:33:20.191Z,34.56
2022-07-26T09:34:25.746Z,34.43
2022-07-26T09:35:50.348Z,34.42
2022-07-26T09:36:54.684Z,34.45
2022-07-26T09:37:56.758Z,34.70
2022-07-26T09:39:01.621Z,34.94
2022-07-26T09:40:06.947Z,35.07
2022-07-26T09:41:19.427Z,34.93
2022-07-26T09:42:30.047Z,34.70
2022-07-26T09:43:37.623Z,34.37
2022-07-26T09:44:48.052Z,34.41
2022-07-26T09:46:03.125Z,34.52
2022-07-26T09:47:05.100Z,34.53
2022-07-26T09:48:11.495Z,34.30
2022-07-26T09:49:18.266Z,34.20
2022-07-26T09:50:25.627Z,34.38
2022-07-26T09:51:41.506Z,34.66
2022-07-26T09:52:59.397Z,34.89
2022-07-26T09:54:01.046Z,35.00
2022-07-26T09:55:06.296Z,34.92
2022-07-26T09:56:08.646Z,34.80
2022-07-26T09:57:10.915Z,34.76
2022-07-26T09:58:14.699Z,34.85
2022-07-26T09:59:18.589Z,34.60
2022-07-26T10:00:20.194Z,34.69
2022-07-26T10:01:21.801Z,34.87
2022-07-26T10:02:23.954Z,34.81
2022-07-26T10:03:25.673Z,34.96
2022-07-26T10:04:27.636Z,34.96
2022-07-26T10:05:29.548Z,34.74
2022-07-26T10:06:32.445Z,34.44
2022-07-26T10:07:34.531Z,34.17
2022-07-26T10:08:36.753Z,34.09
2022-07-26T10:09:54.674Z,34.28
2022-07-26T10:11:04.325Z,34.12
2022-07-26T10:12:08.964Z,33.81
2022-07-26T10:13:11.159Z,33.73
2022-07-26T10:14:40.707Z,33.85
2022-07-26T10:15:47.659Z,34.02
2022-07-26T10:16:49.886Z,34.06
2022-07-26T10:17:51.566Z,34.13
2022-07-26T10:18:57.843Z,34.26
2022-07-26T10:20:10.640Z,34.29
2022-07-26T10:21:32.431Z,34.38
2022-07-26T10:22:45.824Z,34.37
2022-07-26T10:23:58.438Z,34.38
2022-07-26T10:25:18.290Z,34.08
2022-07-26T10:26:43.138Z,34.14
2022-07-26T10:27:48.780Z,34.32
2022-07-26T10:28:50.711Z,34.42
2022-07-26T10:30:18.301Z,34.56
2022-07-26T10:31:29.954Z,34.57
2022-07-26T10:32:34.359Z,34.70
2022-07-26T10:33:44.656Z,34.88
2022-07-26T10:34:46.566Z,35.02
2022-07-26T10:35:48.193Z,35.19
2022-07-26T10:36:58.747Z,35.18
2022-07-26T10:38:06.296Z,35.12
2022-07-26T10:39:12.166Z,35.23
2022-07-26T10:40:21.128Z,35.39
2022-07-26T10:41:35.644Z,35.62
2022-07-26T10:42:44.854Z,35.76
2022-07-26T10:44:16.465Z,35.81
2022-07-26T10:45:22.896Z,35.91
2022-07-26T10:46:28.001Z,36.02
2022-07-26T10:47:34.865Z,36.05
2022-07-26T10:49:06.648Z,35.95
2022-07-26T10:50:08.504Z,35.81
2022-07-26T10:51:26.932Z,35.87
2022-07-26T10:52:30.359Z,35.84
2022-07-26T10:53:32.888Z,35.86
2022-07-26T10:54:55.873Z,35.91
2022-07-26T10:55:58.427Z,35.83
2022-07-26T10:57:00.042Z,35.81
2022-07-26T10:58:01.648Z,35.84
2022-07-26T10:59:05.285Z,35.67
2022-07-26T11:00:11.371Z,35.63
2022-07-26T11:01:13.122Z,35.55
2022-07-26T11:02:19.150Z,35.49
2022-07-26T11:03:21.150Z,35.44
2022-07-26T11:04:23.650Z,35.50
2022-07-26T11:05:31.067Z,35.49
2022-07-26T11:06:32.992Z,35.50
2022-07-26T11:07:57.950Z,35.47
2022-07-26T11:09:10.078Z,35.43
2022-07-26T11:10:11.658Z,35.54
2022-07-26T11:11:14.342Z,35.69
2022-07-26T11:12:19.296Z,35.86
2022-07-26T11:13:25.967Z,35.81
2022-07-26T11:14:27.620Z,35.65
2022-07-26T11:15:29.492Z,35.59
2022-07-26T11:16:37.631Z,35.61
2022-07-26T11:17:39.182Z,35.51
2022-07-26T11:18:40.800Z,35.51
2022-07-26T11:19:42.425Z,35.39
2022-07-26T11:20:46.513Z,35.27
2022-07-26T11:21:59.788Z,35.05
2022-07-26T11:23:01.531Z,34.92
2022-07-26T11:24:04.029Z,34.55
2022-07-26T11:25:06.078Z,34.49
2022-07-26T11:26:18.947Z,34.46
2022-07-26T11:27:20.660Z,34.44
2022-07-26T11:28:22.291Z,34.36
2022-07-26T11:29:40.189Z,34.36
2022-07-26T11:31:00.078Z,34.31
2022-07-26T11:32:14.515Z,34.25
2022-07-26T11:33:18.557Z,34.20
2022-07-26T11:34:25.618Z,34.22
2022-07-26T11:35:30.057Z,34.23
2022-07-26T11:36:33.050Z,34.28
2022-07-26T11:37:34.742Z,34.21
2022-07-26T11:38:52.666Z,34.32
2022-07-26T11:39:54.444Z,34.42
2022-07-26T11:40:56.271Z,34.54
2022-07-26T11:42:04.336Z,34.66
2022-07-26T11:43:06.086Z,34.79
2022-07-26T11:44:23.717Z,34.89
2022-07-26T11:45:25.309Z,34.75
2022-07-26T11:46:38.903Z,34.89
2022-07-26T11:47:40.652Z,35.06
2022-07-26T11:48:47.186Z,35.13
2022-07-26T11:50:00.094Z,34.78
2022-07-26T11:51:14.207Z,34.65
2022-07-26T11:52:25.683Z,34.84
2022-07-26T11:53:27.644Z,34.85
2022-07-26T11:54:43.362Z,34.63
2022-07-26T11:55:47.526Z,34.59
2022-07-26T11:56:54.945Z,34.49
2022-07-26T11:57:57.154Z,34.50
2022-07-26T11:58:59.034Z,34.59
2022-07-26T12:00:01.439Z,34.65
2022-07-26T12:01:03.433Z,34.69
2022-07-26T12:02:09.028Z,34.76
2022-07-26T12:03:10.695Z,34.84
2022-07-26T12:04:24.254Z,34.71
2022-07-26T12:05:26.077Z,34.59
2022-07-26T12:06:28.992Z,34.64
2022-07-26T12:07:31.334Z,34.85
2022-07-26T12:08:48.693Z,34.99
2022-07-26T12:09:53.547Z,34.89
2022-07-26T12:10:55.197Z,34.96
2022-07-26T12:11:57.153Z,35.14
2022-07-26T12:13:12.874Z,35.03
2022-07-26T12:14:31.689Z,35.08
2022-07-26T12:15:44.784Z,35.24
2022-07-26T12:16:47.783Z,35.11
2022-07-26T12:18:00.063Z,35.04
2022-07-26T12:19:02.114Z,34.93
2022-07-26T12:20:15.036Z,34.83
2022-07-26T12:21:19.104Z,34.77
2022-07-26T12:22:22.576Z,34.81
2022-07-26T12:23:24.248Z,34.93
2022-07-26T12:24:46.338Z,34.95
2022-07-26T12:25:49.361Z,34.89
2022-07-26T12:27:05.122Z,34.91
2022-07-26T12:28:07.699Z,34.93
2022-07-26T12:29:24.526Z,34.96
2022-07-26T12:30:30.346Z,35.16
2022-07-26T12:31:34.118Z,35.26
2022-07-26T12:32:37.897Z,35.29
2022-07-26T12:33:49.490Z,35.27
2022-07-26T12:35:21.521Z,35.37
2022-07-26T12:36:27.529Z,35.41
2022-07-26T12:37:39.982Z,35.48
2022-07-26T12:38:44.133Z,35.51
2022-07-26T12:40:06.006Z,35.40
2022-07-26T12:41:07.662Z,35.40
2022-07-26T12:42:42.653Z,35.63
2022-07-26T12:43:44.258Z,35.74
2022-07-26T12:44:51.786Z,35.80
2022-07-26T12:45:53.918Z,35.85
2022-07-26T12:46:55.512Z,35.97
2022-07-26T12:47:58.493Z,36.00
2022-07-26T12:49:00.849Z,36.02
2022-07-26T12:50:04.287Z,36.08
2022-07-26T12:51:06.248Z,36.12
2022-07-26T12:52:07.847Z,36.11
2022-07-26T12:53:09.536Z,36.02
2022-07-26T12:54:14.850Z,35.95
2022-07-26T12:55:21.526Z,35.93
2022-07-26T12:56:23.119Z,36.02
2022-07-26T12:57:24.738Z,35.99
2022-07-26T12:58:26.347Z,35.90
2022-07-26T12:59:27.980Z,35.86
2022-07-26T13:00:30.289Z,35.85
2022-07-26T13:01:32.840Z,35.86
2022-07-26T13:02:34.506Z,35.92
2022-07-26T13:03:36.094Z,35.94
2022-07-26T13:04:38.136Z,35.99
2022-07-26T13:05:39.772Z,35.98
2022-07-26T13:06:41.337Z,35.80
2022-07-26T13:07:43.002Z,35.86
2022-07-26T13:08:44.649Z,35.96
2022-07-26T13:09:47.178Z,36.06
2022-07-26T13:10:48.761Z,36.15
2022-07-26T13:11:50.569Z,36.24
2022-07-26T13:12:52.146Z,36.32
2022-07-26T13:13:53.768Z,36.33
2022-07-26T13:14:55.359Z,36.39
2022-07-26T13:15:57.084Z,36.45
2022-07-26T13:16:58.720Z,36.52
2022-07-26T13:18:00.379Z,36.33
2022-07-26T13:19:02.113Z,36.00
2022-07-26T13:20:04.623Z,35.84
2022-07-26T13:21:06.777Z,35.92
2022-07-26T13:22:09.119Z,35.87
2022-07-26T13:23:12.772Z,35.81
2022-07-26T13:24:16.044Z,35.82
2022-07-26T13:25:18.360Z,35.97
2022-07-26T13:26:21.065Z,36.11
2022-07-26T13:27:23.941Z,36.19
2022-07-26T13:28:25.542Z,36.25
2022-07-26T13:29:27.689Z,36.28
2022-07-26T13:30:29.453Z,36.34
2022-07-26T13:31:32.657Z,36.40
2022-07-26T13:32:34.376Z,36.46
2022-07-26T13:33:38.060Z,36.54
2022-07-26T13:34:39.766Z,36.57
2022-07-26T13:35:43.994Z,36.56
2022-07-26T13:36:46.447Z,36.56
2022-07-26T13:37:48.126Z,36.65
2022-07-26T13:38:49.702Z,36.63
2022-07-26T13:39:51.294Z,36.57
2022-07-26T13:40:53.090Z,36.62
2022-07-26T13:41:55.569Z,36.44
2022-07-26T13:42:57.172Z,36.19
2022-07-26T13:43:59.502Z,36.15
2022-07-26T13:45:01.080Z,36.06
2022-07-26T13:46:03.173Z,36.13